Harry Borthen I — LCOG — position and weather

sailwx.info

Track history (hours):
 
Tides and Currents Weather Stations Pressure Air Temp Water Temp Dewpoint Dewpoint Depression Visibility Wind Speed Wind Dir Waves Ship Positions

Oceanographic research ship Harry Borthen I (Norway)

Detailed information on ship capabilities available from University of Delaware's Ocean Information Center.

Last reported at 2017-May-24 06:50 UTC. Time now 2017-May-24 07:59 UTC.
Position N 63°39' E 009°00'.

Length 15 m.

Type: Other ship. MMSI: 257202800.

Date/timePositionNaut miles runAvg speedWind from/ knotsBaromVisibWave heightAir tempDewpointWater temp
2017-May-24 06:50N 63°39' E 009°00'3 0.2
2017-May-23 15:07N 63°40' E 009°07'1 7.9
2017-May-23 15:00N 63°40' E 009°09'4 7.2
2017-May-23 14:30N 63°42' E 009°15'2 1.2
2017-May-23 12:36N 63°44' E 009°18'0 2.1
2017-May-23 12:30N 63°44' E 009°18'1 2.2
2017-May-23 12:00N 63°43' E 009°15'1 2.4
2017-May-23 11:30N 63°42' E 009°15'1 2.7
2017-May-23 11:00N 63°41' E 009°16'1 1.9
2017-May-23 10:30N 63°40' E 009°15'4 7.7
2017-May-23 10:00N 63°43' E 009°17'1 1.5
2017-May-23 09:18N 63°44' E 009°20'0 1.4
2017-May-23 09:00N 63°43' E 009°20'1 2.4
2017-May-23 08:29N 63°42' E 009°18'1 2.5
2017-May-23 07:59N 63°41' E 009°17'1 2.2
2017-May-23 07:29N 63°40' E 009°17'3 5.6
2017-May-23 06:59N 63°38' E 009°21'4 7.6
2017-May-23 06:30N 63°38' E 009°29'4 7.2
2017-May-23 06:00N 63°38' E 009°37'1 0.1
2017-May-22 14:00N 63°40' E 009°38'1 2.5
2017-May-22 13:30N 63°39' E 009°36'1 2.2
2017-May-22 13:01N 63°38' E 009°34'1 2.1
2017-May-22 12:30N 63°38' E 009°32'1 2.2
2017-May-22 12:01N 63°37' E 009°30'1 2.4
2017-May-22 11:30N 63°38' E 009°28'2 3.5
2017-May-22 10:58N 63°37' E 009°32'1 1.4
2017-May-22 10:30N 63°37' E 009°31'1 2.4
2017-May-22 10:00N 63°38' E 009°33'1 2.8
2017-May-22 09:30N 63°39' E 009°35'1 2.7
2017-May-22 09:01N 63°40' E 009°38'2 2.3
2017-May-22 08:04N 63°40' E 009°42'0 1.7
2017-May-22 07:49N 63°40' E 009°43'5 0.3
2017-May-21 16:24N 63°36' E 009°49'3 7.4
2017-May-21 16:00N 63°33' E 009°51'3 5.3
2017-May-21 15:29N 63°30' E 009°51'1 1.4
2017-May-21 15:00N 63°31' E 009°50'2 2.4
2017-May-21 14:00N 63°33' E 009°50'2 3.1
2017-May-21 13:30N 63°34' E 009°48'2 2.8
2017-May-21 12:57N 63°36' E 009°47'4 1.1
2017-May-21 09:24N 63°38' E 009°40'1 1.7
2017-May-21 08:57N 63°38' E 009°39'1 1.8
2017-May-21 08:30N 63°38' E 009°37'1 2.0
2017-May-21 08:00N 63°37' E 009°35'0 0.9
2017-May-21 07:30N 63°38' E 009°36'0 0.0
2017-May-20 16:48N 63°38' E 009°36'2 7.6
2017-May-20 16:30N 63°37' E 009°32'2 3.6
2017-May-20 15:59N 63°36' E 009°27'1 1.7
2017-May-20 15:10N 63°37' E 009°25'0 2.4
2017-May-20 15:00N 63°37' E 009°24'1 2.1
2017-May-20 14:29N 63°37' E 009°22'0 0.1
2017-May-20 13:30N 63°37' E 009°22'1 1.2
2017-May-20 13:00N 63°38' E 009°23'2 1.6
2017-May-20 12:04N 63°37' E 009°26'0 2.4
2017-May-20 11:58N 63°37' E 009°26'1 2.9
2017-May-20 11:27N 63°37' E 009°30'1 3.1
2017-May-20 11:00N 63°37' E 009°33'2 3.1
2017-May-20 10:30N 63°38' E 009°36'1 2.9
2017-May-20 10:00N 63°38' E 009°39'1 0.1
2017-May-20 01:21N 63°39' E 009°40'2 6.6
2017-May-20 01:00N 63°38' E 009°36'3 6.5
2017-May-20 00:30N 63°36' E 009°29'7 6.3
2017-May-19 23:21N 63°32' E 009°15'2 6.1
2017-May-19 23:00N 63°31' E 009°11'29 6.2
2017-May-19 18:18N 63°18' E 008°13'2 6.0
2017-May-19 17:57N 63°17' E 008°09'3 5.9
2017-May-19 17:25N 63°15' E 008°04'3 6.7
2017-May-19 17:00N 63°13' E 007°59'4 7.2
2017-May-19 16:30N 63°10' E 007°54'4 7.2
2017-May-19 16:00N 63°08' E 007°48'1 2.1
2017-May-19 15:30N 63°07' E 007°47'1 2.5
2017-May-19 15:01N 63°07' E 007°44'2 1.5
2017-May-19 13:59N 63°06' E 007°41'1 1.4
2017-May-19 13:29N 63°06' E 007°41'1 1.5
2017-May-19 13:00N 63°05' E 007°41'2 4.2
2017-May-19 12:31N 63°06' E 007°45'1 1.0
2017-May-19 11:56N 63°07' E 007°44'0 0.0
2017-May-19 11:29N 63°07' E 007°44'  
Track history (hours):
 
Tides and Currents Weather Stations Pressure Air Temp Water Temp Dewpoint Dewpoint Depression Visibility Wind Speed Wind Dir Waves Ship Positions

Oceanographic research ship Harry Borthen I (Norway)

Detailed information on ship capabilities available from University of Delaware's Ocean Information Center.

Last reported at 2017-May-24 06:50 UTC. Time now 2017-May-24 07:59 UTC.
Position N 63°39' E 009°00'.

Length 15 m.

Type: Other ship. MMSI: 257202800.

Date/timePositionNaut miles runAvg speedWind from/ knotsBaromVisibWave heightAir tempDewpointWater temp
2017-May-24 06:50N 63°39' E 009°00'3 0.2
2017-May-23 15:07N 63°40' E 009°07'1 7.9
2017-May-23 15:00N 63°40' E 009°09'4 7.2
2017-May-23 14:30N 63°42' E 009°15'2 1.2
2017-May-23 12:36N 63°44' E 009°18'0 2.1
2017-May-23 12:30N 63°44' E 009°18'1 2.2
2017-May-23 12:00N 63°43' E 009°15'1 2.4
2017-May-23 11:30N 63°42' E 009°15'1 2.7
2017-May-23 11:00N 63°41' E 009°16'1 1.9
2017-May-23 10:30N 63°40' E 009°15'4 7.7
2017-May-23 10:00N 63°43' E 009°17'1 1.5
2017-May-23 09:18N 63°44' E 009°20'0 1.4
2017-May-23 09:00N 63°43' E 009°20'1 2.4
2017-May-23 08:29N 63°42' E 009°18'1 2.5
2017-May-23 07:59N 63°41' E 009°17'1 2.2
2017-May-23 07:29N 63°40' E 009°17'3 5.6
2017-May-23 06:59N 63°38' E 009°21'4 7.6
2017-May-23 06:30N 63°38' E 009°29'4 7.2
2017-May-23 06:00N 63°38' E 009°37'1 0.1
2017-May-22 14:00N 63°40' E 009°38'1 2.5
2017-May-22 13:30N 63°39' E 009°36'1 2.2
2017-May-22 13:01N 63°38' E 009°34'1 2.1
2017-May-22 12:30N 63°38' E 009°32'1 2.2
2017-May-22 12:01N 63°37' E 009°30'1 2.4
2017-May-22 11:30N 63°38' E 009°28'2 3.5
2017-May-22 10:58N 63°37' E 009°32'1 1.4
2017-May-22 10:30N 63°37' E 009°31'1 2.4
2017-May-22 10:00N 63°38' E 009°33'1 2.8
2017-May-22 09:30N 63°39' E 009°35'1 2.7
2017-May-22 09:01N 63°40' E 009°38'2 2.3
2017-May-22 08:04N 63°40' E 009°42'0 1.7
2017-May-22 07:49N 63°40' E 009°43'5 0.3
2017-May-21 16:24N 63°36' E 009°49'3 7.4
2017-May-21 16:00N 63°33' E 009°51'3 5.3
2017-May-21 15:29N 63°30' E 009°51'1 1.4
2017-May-21 15:00N 63°31' E 009°50'2 2.4
2017-May-21 14:00N 63°33' E 009°50'2 3.1
2017-May-21 13:30N 63°34' E 009°48'2 2.8
2017-May-21 12:57N 63°36' E 009°47'4 1.1
2017-May-21 09:24N 63°38' E 009°40'1 1.7
2017-May-21 08:57N 63°38' E 009°39'1 1.8
2017-May-21 08:30N 63°38' E 009°37'1 2.0
2017-May-21 08:00N 63°37' E 009°35'0 0.9
2017-May-21 07:30N 63°38' E 009°36'0 0.0
2017-May-20 16:48N 63°38' E 009°36'2 7.6
2017-May-20 16:30N 63°37' E 009°32'2 3.6
2017-May-20 15:59N 63°36' E 009°27'1 1.7
2017-May-20 15:10N 63°37' E 009°25'0 2.4
2017-May-20 15:00N 63°37' E 009°24'1 2.1
2017-May-20 14:29N 63°37' E 009°22'0 0.1
2017-May-20 13:30N 63°37' E 009°22'1 1.2
2017-May-20 13:00N 63°38' E 009°23'2 1.6
2017-May-20 12:04N 63°37' E 009°26'0 2.4
2017-May-20 11:58N 63°37' E 009°26'1 2.9
2017-May-20 11:27N 63°37' E 009°30'1 3.1
2017-May-20 11:00N 63°37' E 009°33'2 3.1
2017-May-20 10:30N 63°38' E 009°36'1 2.9
2017-May-20 10:00N 63°38' E 009°39'1 0.1
2017-May-20 01:21N 63°39' E 009°40'2 6.6
2017-May-20 01:00N 63°38' E 009°36'3 6.5
2017-May-20 00:30N 63°36' E 009°29'7 6.3
2017-May-19 23:21N 63°32' E 009°15'2 6.1
2017-May-19 23:00N 63°31' E 009°11'29 6.2
2017-May-19 18:18N 63°18' E 008°13'2 6.0
2017-May-19 17:57N 63°17' E 008°09'3 5.9
2017-May-19 17:25N 63°15' E 008°04'3 6.7
2017-May-19 17:00N 63°13' E 007°59'4 7.2
2017-May-19 16:30N 63°10' E 007°54'4 7.2
2017-May-19 16:00N 63°08' E 007°48'1 2.1
2017-May-19 15:30N 63°07' E 007°47'1 2.5
2017-May-19 15:01N 63°07' E 007°44'2 1.5
2017-May-19 13:59N 63°06' E 007°41'1 1.4
2017-May-19 13:29N 63°06' E 007°41'1 1.5
2017-May-19 13:00N 63°05' E 007°41'2 4.2
2017-May-19 12:31N 63°06' E 007°45'1 1.0
2017-May-19 11:56N 63°07' E 007°44'0 0.0
2017-May-19 11:29N 63°07' E 007°44'  

Dump ship's entire track history